sensor_id;sensor_type;location;lat;lon;timestamp;P1;durP1;ratioP1;P2;durP2;ratioP2
71366;SDS011;60030;52.274;8.040;2022-12-07T00:00:20;15.17;;;10.07;;
71366;SDS011;60030;52.274;8.040;2022-12-07T00:02:48;13.70;;;9.30;;
71366;SDS011;60030;52.274;8.040;2022-12-07T00:05:15;12.27;;;9.20;;
71366;SDS011;60030;52.274;8.040;2022-12-07T00:07:42;13.30;;;8.90;;
71366;SDS011;60030;52.274;8.040;2022-12-07T00:10:09;11.77;;;8.73;;
71366;SDS011;60030;52.274;8.040;2022-12-07T00:12:36;12.43;;;8.70;;
71366;SDS011;60030;52.274;8.040;2022-12-07T00:15:04;13.93;;;10.07;;
71366;SDS011;60030;52.274;8.040;2022-12-07T00:17:31;10.43;;;8.30;;
71366;SDS011;60030;52.274;8.040;2022-12-07T00:20:00;10.67;;;7.87;;
71366;SDS011;60030;52.274;8.040;2022-12-07T00:22:27;11.23;;;7.93;;
71366;SDS011;60030;52.274;8.040;2022-12-07T00:24:54;10.23;;;7.50;;
71366;SDS011;60030;52.274;8.040;2022-12-07T00:27:21;12.67;;;8.23;;
71366;SDS011;60030;52.274;8.040;2022-12-07T00:29:48;12.97;;;8.47;;
71366;SDS011;60030;52.274;8.040;2022-12-07T00:32:15;10.67;;;7.87;;
71366;SDS011;60030;52.274;8.040;2022-12-07T00:34:42;12.37;;;8.23;;
71366;SDS011;60030;52.274;8.040;2022-12-07T00:37:10;11.37;;;7.90;;
71366;SDS011;60030;52.274;8.040;2022-12-07T00:39:38;12.70;;;8.57;;
71366;SDS011;60030;52.274;8.040;2022-12-07T00:42:05;11.60;;;7.90;;
71366;SDS011;60030;52.274;8.040;2022-12-07T00:44:32;14.80;;;8.70;;
71366;SDS011;60030;52.274;8.040;2022-12-07T00:47:01;10.87;;;7.97;;
71366;SDS011;60030;52.274;8.040;2022-12-07T00:49:28;12.40;;;8.03;;
71366;SDS011;60030;52.274;8.040;2022-12-07T00:51:55;11.63;;;7.57;;
71366;SDS011;60030;52.274;8.040;2022-12-07T00:54:23;11.40;;;7.20;;
71366;SDS011;60030;52.274;8.040;2022-12-07T00:56:50;8.83;;;6.77;;
71366;SDS011;60030;52.274;8.040;2022-12-07T00:59:17;11.40;;;8.00;;
71366;SDS011;60030;52.274;8.040;2022-12-07T01:01:44;11.53;;;7.90;;
71366;SDS011;60030;52.274;8.040;2022-12-07T01:04:11;8.93;;;6.63;;
71366;SDS011;60030;52.274;8.040;2022-12-07T01:06:38;9.40;;;7.17;;
71366;SDS011;60030;52.274;8.040;2022-12-07T01:09:05;8.27;;;6.43;;
71366;SDS011;60030;52.274;8.040;2022-12-07T01:11:34;8.83;;;5.87;;
71366;SDS011;60030;52.274;8.040;2022-12-07T01:14:01;10.23;;;6.30;;
71366;SDS011;60030;52.274;8.040;2022-12-07T01:16:29;7.60;;;5.83;;
71366;SDS011;60030;52.274;8.040;2022-12-07T01:18:57;11.10;;;6.40;;
71366;SDS011;60030;52.274;8.040;2022-12-07T01:21:26;10.83;;;6.37;;
71366;SDS011;60030;52.274;8.040;2022-12-07T01:23:56;9.43;;;6.33;;
71366;SDS011;60030;52.274;8.040;2022-12-07T01:26:24;8.60;;;6.43;;
71366;SDS011;60030;52.274;8.040;2022-12-07T01:28:53;9.27;;;5.50;;
71366;SDS011;60030;52.274;8.040;2022-12-07T01:31:21;8.03;;;5.80;;
71366;SDS011;60030;52.274;8.040;2022-12-07T01:33:50;7.77;;;5.07;;
71366;SDS011;60030;52.274;8.040;2022-12-07T01:36:20;8.33;;;5.77;;
71366;SDS011;60030;52.274;8.040;2022-12-07T01:38:48;7.53;;;5.37;;
71366;SDS011;60030;52.274;8.040;2022-12-07T01:41:18;6.17;;;4.90;;
71366;SDS011;60030;52.274;8.040;2022-12-07T01:46:36;9.53;;;4.87;;
71366;SDS011;60030;52.274;8.040;2022-12-07T01:49:03;7.00;;;5.50;;
71366;SDS011;60030;52.274;8.040;2022-12-07T01:51:32;7.70;;;5.07;;
71366;SDS011;60030;52.274;8.040;2022-12-07T01:54:01;9.00;;;6.10;;
71366;SDS011;60030;52.274;8.040;2022-12-07T01:56:28;12.80;;;5.77;;
71366;SDS011;60030;52.274;8.040;2022-12-07T01:58:57;10.00;;;6.23;;
71366;SDS011;60030;52.274;8.040;2022-12-07T02:01:27;10.60;;;5.70;;
71366;SDS011;60030;52.274;8.040;2022-12-07T02:03:54;10.67;;;5.73;;
71366;SDS011;60030;52.274;8.040;2022-12-07T02:06:23;7.77;;;5.60;;
71366;SDS011;60030;52.274;8.040;2022-12-07T02:08:52;9.83;;;5.73;;
71366;SDS011;60030;52.274;8.040;2022-12-07T02:11:19;9.90;;;5.73;;
71366;SDS011;60030;52.274;8.040;2022-12-07T02:13:47;10.33;;;5.57;;
71366;SDS011;60030;52.274;8.040;2022-12-07T02:16:21;9.57;;;5.40;;
71366;SDS011;60030;52.274;8.040;2022-12-07T02:18:59;9.50;;;4.87;;
71366;SDS011;60030;52.274;8.040;2022-12-07T02:21:43;8.57;;;4.63;;
71366;SDS011;60030;52.274;8.040;2022-12-07T02:24:18;9.43;;;4.83;;
71366;SDS011;60030;52.274;8.040;2022-12-07T02:27:07;8.77;;;5.10;;
71366;SDS011;60030;52.274;8.040;2022-12-07T02:29:47;5.43;;;4.07;;
71366;SDS011;60030;52.274;8.040;2022-12-07T02:32:18;6.83;;;4.00;;
71366;SDS011;60030;52.274;8.040;2022-12-07T02:34:51;8.10;;;4.03;;
71366;SDS011;60030;52.274;8.040;2022-12-07T02:37:29;7.83;;;4.30;;
71366;SDS011;60030;52.274;8.040;2022-12-07T02:40:04;6.20;;;4.27;;
71366;SDS011;60030;52.274;8.040;2022-12-07T02:42:36;9.63;;;4.70;;
71366;SDS011;60030;52.274;8.040;2022-12-07T02:45:08;4.37;;;3.70;;
71366;SDS011;60030;52.274;8.040;2022-12-07T02:47:38;8.00;;;4.30;;
71366;SDS011;60030;52.274;8.040;2022-12-07T02:50:07;7.30;;;4.30;;
71366;SDS011;60030;52.274;8.040;2022-12-07T02:52:35;6.70;;;3.67;;
71366;SDS011;60030;52.274;8.040;2022-12-07T02:55:03;4.97;;;3.50;;
71366;SDS011;60030;52.274;8.040;2022-12-07T02:57:42;7.57;;;4.00;;
71366;SDS011;60030;52.274;8.040;2022-12-07T03:00:21;8.17;;;3.53;;
71366;SDS011;60030;52.274;8.040;2022-12-07T03:02:50;7.00;;;3.53;;
71366;SDS011;60030;52.274;8.040;2022-12-07T03:05:26;8.07;;;3.80;;
71366;SDS011;60030;52.274;8.040;2022-12-07T03:08:04;9.67;;;3.90;;
71366;SDS011;60030;52.274;8.040;2022-12-07T03:10:40;8.20;;;3.50;;
71366;SDS011;60030;52.274;8.040;2022-12-07T03:13:16;7.77;;;3.13;;
71366;SDS011;60030;52.274;8.040;2022-12-07T03:15:51;8.17;;;2.90;;
71366;SDS011;60030;52.274;8.040;2022-12-07T03:18:22;6.70;;;3.30;;
71366;SDS011;60030;52.274;8.040;2022-12-07T03:20:53;5.60;;;2.97;;
71366;SDS011;60030;52.274;8.040;2022-12-07T03:23:23;8.13;;;2.70;;
71366;SDS011;60030;52.274;8.040;2022-12-07T03:25:54;7.43;;;3.20;;
71366;SDS011;60030;52.274;8.040;2022-12-07T03:28:24;4.70;;;2.50;;
71366;SDS011;60030;52.274;8.040;2022-12-07T03:30:59;7.23;;;2.40;;
71366;SDS011;60030;52.274;8.040;2022-12-07T03:33:32;3.83;;;2.03;;
71366;SDS011;60030;52.274;8.040;2022-12-07T03:36:06;4.53;;;2.50;;
71366;SDS011;60030;52.274;8.040;2022-12-07T03:38:37;6.50;;;2.10;;
71366;SDS011;60030;52.274;8.040;2022-12-07T03:41:09;4.10;;;2.00;;
71366;SDS011;60030;52.274;8.040;2022-12-07T03:43:38;3.73;;;1.97;;
71366;SDS011;60030;52.274;8.040;2022-12-07T03:46:11;4.43;;;2.10;;
71366;SDS011;60030;52.274;8.040;2022-12-07T03:48:46;6.93;;;2.27;;
71366;SDS011;60030;52.274;8.040;2022-12-07T03:51:24;3.50;;;1.80;;
71366;SDS011;60030;52.274;8.040;2022-12-07T03:53:57;4.60;;;2.10;;
71366;SDS011;60030;52.274;8.040;2022-12-07T03:56:29;6.37;;;1.83;;
71366;SDS011;60030;52.274;8.040;2022-12-07T03:58:57;2.83;;;1.70;;
71366;SDS011;60030;52.274;8.040;2022-12-07T04:01:25;3.83;;;2.00;;
71366;SDS011;60030;52.274;8.040;2022-12-07T04:03:53;6.33;;;2.17;;
71366;SDS011;60030;52.274;8.040;2022-12-07T04:06:20;4.03;;;2.00;;
71366;SDS011;60030;52.274;8.040;2022-12-07T04:08:47;6.17;;;1.97;;
71366;SDS011;60030;52.274;8.040;2022-12-07T04:11:14;3.63;;;1.73;;
71366;SDS011;60030;52.274;8.040;2022-12-07T04:13:42;3.97;;;2.27;;
71366;SDS011;60030;52.274;8.040;2022-12-07T04:16:28;4.20;;;2.27;;
71366;SDS011;60030;52.274;8.040;2022-12-07T04:18:55;5.10;;;2.13;;
71366;SDS011;60030;52.274;8.040;2022-12-07T04:21:22;5.47;;;1.57;;
71366;SDS011;60030;52.274;8.040;2022-12-07T04:23:49;7.60;;;2.13;;
71366;SDS011;60030;52.274;8.040;2022-12-07T04:26:16;2.70;;;1.80;;
71366;SDS011;60030;52.274;8.040;2022-12-07T04:28:43;4.57;;;2.00;;
71366;SDS011;60030;52.274;8.040;2022-12-07T04:31:10;5.43;;;2.10;;
71366;SDS011;60030;52.274;8.040;2022-12-07T04:33:38;7.33;;;1.70;;
71366;SDS011;60030;52.274;8.040;2022-12-07T04:36:05;7.57;;;1.63;;
71366;SDS011;60030;52.274;8.040;2022-12-07T04:38:33;5.23;;;2.10;;
71366;SDS011;60030;52.274;8.040;2022-12-07T04:41:03;5.53;;;1.70;;
71366;SDS011;60030;52.274;8.040;2022-12-07T04:43:31;4.47;;;1.63;;
71366;SDS011;60030;52.274;8.040;2022-12-07T04:45:58;3.87;;;1.40;;
71366;SDS011;60030;52.274;8.040;2022-12-07T04:48:25;4.10;;;1.67;;
71366;SDS011;60030;52.274;8.040;2022-12-07T04:50:54;3.63;;;1.20;;
71366;SDS011;60030;52.274;8.040;2022-12-07T04:53:21;5.27;;;1.30;;
71366;SDS011;60030;52.274;8.040;2022-12-07T04:55:49;4.60;;;1.30;;
71366;SDS011;60030;52.274;8.040;2022-12-07T04:58:16;6.63;;;1.53;;
71366;SDS011;60030;52.274;8.040;2022-12-07T05:00:43;2.03;;;1.20;;
71366;SDS011;60030;52.274;8.040;2022-12-07T05:03:10;6.53;;;1.40;;
71366;SDS011;60030;52.274;8.040;2022-12-07T05:05:39;2.60;;;1.00;;
71366;SDS011;60030;52.274;8.040;2022-12-07T05:08:08;5.93;;;1.27;;
71366;SDS011;60030;52.274;8.040;2022-12-07T05:10:35;4.17;;;1.50;;
71366;SDS011;60030;52.274;8.040;2022-12-07T05:13:02;2.63;;;1.40;;
71366;SDS011;60030;52.274;8.040;2022-12-07T05:15:29;4.50;;;1.13;;
71366;SDS011;60030;52.274;8.040;2022-12-07T05:17:56;4.63;;;1.00;;
71366;SDS011;60030;52.274;8.040;2022-12-07T05:20:24;4.27;;;1.03;;
71366;SDS011;60030;52.274;8.040;2022-12-07T05:22:51;2.33;;;0.90;;
71366;SDS011;60030;52.274;8.040;2022-12-07T05:25:20;2.37;;;1.10;;
71366;SDS011;60030;52.274;8.040;2022-12-07T05:27:47;4.73;;;1.20;;
71366;SDS011;60030;52.274;8.040;2022-12-07T05:30:14;4.93;;;1.60;;
71366;SDS011;60030;52.274;8.040;2022-12-07T05:32:41;5.93;;;1.23;;
71366;SDS011;60030;52.274;8.040;2022-12-07T05:35:09;6.33;;;1.73;;
71366;SDS011;60030;52.274;8.040;2022-12-07T05:37:36;5.27;;;1.83;;
71366;SDS011;60030;52.274;8.040;2022-12-07T05:40:04;2.93;;;1.47;;
71366;SDS011;60030;52.274;8.040;2022-12-07T05:42:35;3.73;;;1.83;;
71366;SDS011;60030;52.274;8.040;2022-12-07T05:45:02;3.50;;;1.70;;
71366;SDS011;60030;52.274;8.040;2022-12-07T05:47:30;6.47;;;1.93;;
71366;SDS011;60030;52.274;8.040;2022-12-07T05:49:57;4.00;;;1.53;;
71366;SDS011;60030;52.274;8.040;2022-12-07T05:52:24;8.10;;;1.93;;
71366;SDS011;60030;52.274;8.040;2022-12-07T05:54:52;5.73;;;1.97;;
71366;SDS011;60030;52.274;8.040;2022-12-07T05:57:19;6.17;;;1.70;;
71366;SDS011;60030;52.274;8.040;2022-12-07T05:59:47;6.20;;;1.47;;
71366;SDS011;60030;52.274;8.040;2022-12-07T06:02:14;3.67;;;1.80;;
71366;SDS011;60030;52.274;8.040;2022-12-07T06:04:43;5.53;;;2.00;;
71366;SDS011;60030;52.274;8.040;2022-12-07T06:07:13;4.90;;;1.80;;
71366;SDS011;60030;52.274;8.040;2022-12-07T06:09:41;9.37;;;2.70;;
71366;SDS011;60030;52.274;8.040;2022-12-07T06:12:09;6.40;;;1.93;;
71366;SDS011;60030;52.274;8.040;2022-12-07T06:14:56;5.93;;;1.63;;
71366;SDS011;60030;52.274;8.040;2022-12-07T06:17:24;6.70;;;1.97;;
71366;SDS011;60030;52.274;8.040;2022-12-07T06:19:51;6.13;;;1.57;;
71366;SDS011;60030;52.274;8.040;2022-12-07T06:22:18;3.70;;;1.70;;
71366;SDS011;60030;52.274;8.040;2022-12-07T06:24:45;3.37;;;1.13;;
71366;SDS011;60030;52.274;8.040;2022-12-07T06:27:12;4.23;;;1.33;;
71366;SDS011;60030;52.274;8.040;2022-12-07T06:29:40;3.30;;;1.30;;
71366;SDS011;60030;52.274;8.040;2022-12-07T06:32:08;3.17;;;1.23;;
71366;SDS011;60030;52.274;8.040;2022-12-07T06:34:35;5.50;;;1.77;;
71366;SDS011;60030;52.274;8.040;2022-12-07T06:37:02;6.10;;;1.70;;
71366;SDS011;60030;52.274;8.040;2022-12-07T06:39:29;7.67;;;1.50;;
71366;SDS011;60030;52.274;8.040;2022-12-07T06:41:57;2.43;;;1.33;;
71366;SDS011;60030;52.274;8.040;2022-12-07T06:44:24;2.33;;;1.13;;
71366;SDS011;60030;52.274;8.040;2022-12-07T06:46:52;4.73;;;1.43;;
71366;SDS011;60030;52.274;8.040;2022-12-07T06:49:20;4.57;;;1.60;;
71366;SDS011;60030;52.274;8.040;2022-12-07T06:51:47;5.53;;;1.73;;
71366;SDS011;60030;52.274;8.040;2022-12-07T06:54:15;4.30;;;1.57;;
71366;SDS011;60030;52.274;8.040;2022-12-07T06:56:42;8.87;;;1.57;;
71366;SDS011;60030;52.274;8.040;2022-12-07T06:59:09;8.20;;;1.87;;
71366;SDS011;60030;52.274;8.040;2022-12-07T07:01:37;1.37;;;0.97;;
71366;SDS011;60030;52.274;8.040;2022-12-07T07:04:04;6.10;;;1.40;;
71366;SDS011;60030;52.274;8.040;2022-12-07T07:06:32;4.80;;;1.33;;
71366;SDS011;60030;52.274;8.040;2022-12-07T07:08:59;4.70;;;1.20;;
71366;SDS011;60030;52.274;8.040;2022-12-07T07:11:26;6.77;;;1.43;;
71366;SDS011;60030;52.274;8.040;2022-12-07T07:13:53;4.47;;;1.20;;
71366;SDS011;60030;52.274;8.040;2022-12-07T07:16:22;4.23;;;1.17;;
71366;SDS011;60030;52.274;8.040;2022-12-07T07:18:50;5.57;;;1.80;;
71366;SDS011;60030;52.274;8.040;2022-12-07T07:21:17;8.10;;;1.20;;
71366;SDS011;60030;52.274;8.040;2022-12-07T07:23:45;5.50;;;1.70;;
71366;SDS011;60030;52.274;8.040;2022-12-07T07:26:12;7.93;;;2.00;;
71366;SDS011;60030;52.274;8.040;2022-12-07T07:28:39;3.93;;;1.50;;
71366;SDS011;60030;52.274;8.040;2022-12-07T07:31:06;3.23;;;1.43;;
71366;SDS011;60030;52.274;8.040;2022-12-07T07:33:33;5.17;;;1.70;;
71366;SDS011;60030;52.274;8.040;2022-12-07T07:36:01;8.77;;;1.83;;
71366;SDS011;60030;52.274;8.040;2022-12-07T07:38:28;4.50;;;1.40;;
71366;SDS011;60030;52.274;8.040;2022-12-07T07:40:56;3.57;;;1.33;;
71366;SDS011;60030;52.274;8.040;2022-12-07T07:43:23;6.33;;;1.90;;
71366;SDS011;60030;52.274;8.040;2022-12-07T07:45:50;7.07;;;1.97;;
71366;SDS011;60030;52.274;8.040;2022-12-07T07:48:17;6.13;;;1.43;;
71366;SDS011;60030;52.274;8.040;2022-12-07T07:50:44;6.20;;;1.80;;
71366;SDS011;60030;52.274;8.040;2022-12-07T07:53:11;4.90;;;1.60;;
71366;SDS011;60030;52.274;8.040;2022-12-07T07:55:38;3.00;;;1.30;;
71366;SDS011;60030;52.274;8.040;2022-12-07T07:58:06;5.23;;;1.80;;
71366;SDS011;60030;52.274;8.040;2022-12-07T08:00:34;4.07;;;1.30;;
71366;SDS011;60030;52.274;8.040;2022-12-07T08:03:01;5.80;;;1.70;;
71366;SDS011;60030;52.274;8.040;2022-12-07T08:05:29;7.13;;;1.70;;
71366;SDS011;60030;52.274;8.040;2022-12-07T08:07:57;5.60;;;1.80;;
71366;SDS011;60030;52.274;8.040;2022-12-07T08:10:24;7.13;;;1.53;;
71366;SDS011;60030;52.274;8.040;2022-12-07T08:12:51;6.07;;;1.80;;
71366;SDS011;60030;52.274;8.040;2022-12-07T08:15:37;5.50;;;1.60;;
71366;SDS011;60030;52.274;8.040;2022-12-07T08:18:05;8.07;;;1.70;;
71366;SDS011;60030;52.274;8.040;2022-12-07T08:20:33;3.87;;;1.47;;
71366;SDS011;60030;52.274;8.040;2022-12-07T08:23:01;6.70;;;1.60;;
71366;SDS011;60030;52.274;8.040;2022-12-07T08:25:29;7.80;;;1.63;;
71366;SDS011;60030;52.274;8.040;2022-12-07T08:27:56;8.30;;;2.03;;
71366;SDS011;60030;52.274;8.040;2022-12-07T08:30:23;4.07;;;1.60;;
71366;SDS011;60030;52.274;8.040;2022-12-07T08:32:52;6.03;;;1.77;;
71366;SDS011;60030;52.274;8.040;2022-12-07T08:35:19;6.30;;;1.80;;
71366;SDS011;60030;52.274;8.040;2022-12-07T08:37:46;3.90;;;1.40;;
71366;SDS011;60030;52.274;8.040;2022-12-07T08:40:13;7.00;;;3.83;;
71366;SDS011;60030;52.274;8.040;2022-12-07T08:42:41;5.20;;;1.83;;
71366;SDS011;60030;52.274;8.040;2022-12-07T08:45:11;3.80;;;1.80;;
71366;SDS011;60030;52.274;8.040;2022-12-07T08:47:41;6.87;;;1.73;;
71366;SDS011;60030;52.274;8.040;2022-12-07T08:50:12;3.03;;;1.30;;
71366;SDS011;60030;52.274;8.040;2022-12-07T08:52:40;7.10;;;1.60;;
71366;SDS011;60030;52.274;8.040;2022-12-07T08:55:09;8.90;;;1.53;;
71366;SDS011;60030;52.274;8.040;2022-12-07T08:57:37;7.30;;;1.67;;
71366;SDS011;60030;52.274;8.040;2022-12-07T09:00:06;3.93;;;1.90;;
71366;SDS011;60030;52.274;8.040;2022-12-07T09:02:34;5.77;;;1.70;;
71366;SDS011;60030;52.274;8.040;2022-12-07T09:05:01;4.60;;;1.90;;
71366;SDS011;60030;52.274;8.040;2022-12-07T09:07:30;3.37;;;1.30;;
71366;SDS011;60030;52.274;8.040;2022-12-07T09:10:00;4.03;;;1.60;;
71366;SDS011;60030;52.274;8.040;2022-12-07T09:12:27;2.40;;;1.13;;
71366;SDS011;60030;52.274;8.040;2022-12-07T09:14:54;4.87;;;1.70;;
71366;SDS011;60030;52.274;8.040;2022-12-07T09:17:22;5.17;;;1.53;;
71366;SDS011;60030;52.274;8.040;2022-12-07T09:19:49;4.50;;;1.50;;
71366;SDS011;60030;52.274;8.040;2022-12-07T09:22:16;6.30;;;1.70;;
71366;SDS011;60030;52.274;8.040;2022-12-07T09:24:44;3.13;;;1.33;;
71366;SDS011;60030;52.274;8.040;2022-12-07T09:27:12;1.93;;;1.43;;
71366;SDS011;60030;52.274;8.040;2022-12-07T09:29:39;3.97;;;1.57;;
71366;SDS011;60030;52.274;8.040;2022-12-07T09:32:06;5.80;;;1.60;;
71366;SDS011;60030;52.274;8.040;2022-12-07T09:34:33;3.57;;;1.57;;
71366;SDS011;60030;52.274;8.040;2022-12-07T09:37:00;6.03;;;1.93;;
71366;SDS011;60030;52.274;8.040;2022-12-07T09:39:28;5.10;;;1.70;;
71366;SDS011;60030;52.274;8.040;2022-12-07T09:41:57;3.77;;;1.63;;
71366;SDS011;60030;52.274;8.040;2022-12-07T09:44:25;3.50;;;1.30;;
71366;SDS011;60030;52.274;8.040;2022-12-07T09:46:53;2.23;;;1.53;;
71366;SDS011;60030;52.274;8.040;2022-12-07T09:49:22;4.70;;;1.60;;
71366;SDS011;60030;52.274;8.040;2022-12-07T09:51:59;5.17;;;1.40;;
71366;SDS011;60030;52.274;8.040;2022-12-07T09:54:28;6.83;;;1.60;;
71366;SDS011;60030;52.274;8.040;2022-12-07T09:56:58;3.27;;;1.70;;
71366;SDS011;60030;52.274;8.040;2022-12-07T09:59:25;6.40;;;2.03;;
71366;SDS011;60030;52.274;8.040;2022-12-07T10:01:53;5.70;;;1.50;;
71366;SDS011;60030;52.274;8.040;2022-12-07T10:04:22;7.00;;;1.77;;
71366;SDS011;60030;52.274;8.040;2022-12-07T10:06:51;3.57;;;1.50;;
71366;SDS011;60030;52.274;8.040;2022-12-07T10:09:19;5.23;;;1.47;;
71366;SDS011;60030;52.274;8.040;2022-12-07T10:12:02;3.23;;;1.67;;
71366;SDS011;60030;52.274;8.040;2022-12-07T10:14:32;5.90;;;1.33;;
71366;SDS011;60030;52.274;8.040;2022-12-07T10:17:02;2.60;;;1.40;;
71366;SDS011;60030;52.274;8.040;2022-12-07T10:19:49;4.47;;;1.40;;
71366;SDS011;60030;52.274;8.040;2022-12-07T10:22:16;8.43;;;1.60;;
71366;SDS011;60030;52.274;8.040;2022-12-07T10:24:45;5.07;;;1.40;;
71366;SDS011;60030;52.274;8.040;2022-12-07T10:27:19;7.13;;;1.57;;
71366;SDS011;60030;52.274;8.040;2022-12-07T10:29:48;4.13;;;1.50;;
71366;SDS011;60030;52.274;8.040;2022-12-07T10:32:28;3.73;;;1.10;;
71366;SDS011;60030;52.274;8.040;2022-12-07T10:35:16;4.60;;;1.30;;
71366;SDS011;60030;52.274;8.040;2022-12-07T10:37:47;3.00;;;1.20;;
71366;SDS011;60030;52.274;8.040;2022-12-07T10:40:25;5.93;;;1.63;;
71366;SDS011;60030;52.274;8.040;2022-12-07T10:43:03;7.33;;;1.53;;
71366;SDS011;60030;52.274;8.040;2022-12-07T10:45:32;5.07;;;1.70;;
71366;SDS011;60030;52.274;8.040;2022-12-07T10:48:02;3.50;;;1.50;;
71366;SDS011;60030;52.274;8.040;2022-12-07T10:50:40;3.80;;;1.57;;
71366;SDS011;60030;52.274;8.040;2022-12-07T10:53:23;3.33;;;1.30;;
71366;SDS011;60030;52.274;8.040;2022-12-07T10:56:08;2.57;;;1.30;;
71366;SDS011;60030;52.274;8.040;2022-12-07T10:58:51;5.37;;;1.53;;
71366;SDS011;60030;52.274;8.040;2022-12-07T11:01:30;4.07;;;1.50;;
71366;SDS011;60030;52.274;8.040;2022-12-07T11:04:07;3.23;;;1.17;;
71366;SDS011;60030;52.274;8.040;2022-12-07T11:06:45;6.17;;;1.30;;
71366;SDS011;60030;52.274;8.040;2022-12-07T11:09:35;5.60;;;1.40;;
71366;SDS011;60030;52.274;8.040;2022-12-07T11:12:27;6.67;;;1.43;;
71366;SDS011;60030;52.274;8.040;2022-12-07T11:15:08;6.23;;;1.20;;
71366;SDS011;60030;52.274;8.040;2022-12-07T11:17:43;2.90;;;1.30;;
71366;SDS011;60030;52.274;8.040;2022-12-07T11:20:19;4.83;;;1.20;;
71366;SDS011;60030;52.274;8.040;2022-12-07T11:22:57;4.37;;;1.77;;
71366;SDS011;60030;52.274;8.040;2022-12-07T11:25:31;4.83;;;1.60;;
71366;SDS011;60030;52.274;8.040;2022-12-07T11:28:15;4.53;;;1.63;;
71366;SDS011;60030;52.274;8.040;2022-12-07T11:30:53;5.03;;;1.87;;
71366;SDS011;60030;52.274;8.040;2022-12-07T11:33:26;5.53;;;1.40;;
71366;SDS011;60030;52.274;8.040;2022-12-07T11:36:05;8.53;;;1.90;;
71366;SDS011;60030;52.274;8.040;2022-12-07T11:38:46;6.57;;;2.10;;
71366;SDS011;60030;52.274;8.040;2022-12-07T11:41:20;5.73;;;1.80;;
71366;SDS011;60030;52.274;8.040;2022-12-07T11:43:53;2.57;;;1.53;;
71366;SDS011;60030;52.274;8.040;2022-12-07T11:46:25;4.37;;;1.30;;
71366;SDS011;60030;52.274;8.040;2022-12-07T11:48:55;5.13;;;1.30;;
71366;SDS011;60030;52.274;8.040;2022-12-07T11:51:28;4.67;;;1.40;;
71366;SDS011;60030;52.274;8.040;2022-12-07T11:54:01;2.97;;;1.50;;
71366;SDS011;60030;52.274;8.040;2022-12-07T11:56:31;3.90;;;1.47;;
71366;SDS011;60030;52.274;8.040;2022-12-07T11:59:04;5.13;;;1.40;;
71366;SDS011;60030;52.274;8.040;2022-12-07T12:01:44;7.00;;;1.87;;
71366;SDS011;60030;52.274;8.040;2022-12-07T12:04:23;3.73;;;1.53;;
71366;SDS011;60030;52.274;8.040;2022-12-07T12:06:56;3.67;;;1.33;;
71366;SDS011;60030;52.274;8.040;2022-12-07T12:09:24;3.20;;;1.23;;
71366;SDS011;60030;52.274;8.040;2022-12-07T12:12:05;4.07;;;1.10;;
71366;SDS011;60030;52.274;8.040;2022-12-07T12:14:53;4.23;;;0.90;;
71366;SDS011;60030;52.274;8.040;2022-12-07T12:17:34;5.57;;;0.87;;
71366;SDS011;60030;52.274;8.040;2022-12-07T12:20:20;3.20;;;1.00;;
71366;SDS011;60030;52.274;8.040;2022-12-07T12:22:53;7.13;;;1.50;;
71366;SDS011;60030;52.274;8.040;2022-12-07T12:25:27;6.13;;;1.30;;
71366;SDS011;60030;52.274;8.040;2022-12-07T12:27:57;6.50;;;1.50;;
71366;SDS011;60030;52.274;8.040;2022-12-07T12:30:32;3.67;;;1.10;;
71366;SDS011;60030;52.274;8.040;2022-12-07T12:33:04;3.80;;;0.87;;
71366;SDS011;60030;52.274;8.040;2022-12-07T12:35:34;6.50;;;1.20;;
71366;SDS011;60030;52.274;8.040;2022-12-07T12:40:53;4.77;;;1.03;;
71366;SDS011;60030;52.274;8.040;2022-12-07T12:55:19;6.80;;;1.00;;
71366;SDS011;60030;52.274;8.040;2022-12-07T13:10:21;3.07;;;1.43;;
71366;SDS011;60030;52.274;8.040;2022-12-07T13:13:03;2.53;;;1.00;;
71366;SDS011;60030;52.274;8.040;2022-12-07T13:15:51;2.87;;;1.50;;
71366;SDS011;60030;52.274;8.040;2022-12-07T13:18:23;4.90;;;1.10;;
71366;SDS011;60030;52.274;8.040;2022-12-07T13:20:52;5.33;;;1.17;;
71366;SDS011;60030;52.274;8.040;2022-12-07T13:23:30;6.23;;;1.30;;
71366;SDS011;60030;52.274;8.040;2022-12-07T13:26:12;3.23;;;1.10;;
71366;SDS011;60030;52.274;8.040;2022-12-07T13:28:42;6.33;;;1.57;;
71366;SDS011;60030;52.274;8.040;2022-12-07T13:31:14;3.07;;;1.37;;
71366;SDS011;60030;52.274;8.040;2022-12-07T13:33:57;3.50;;;1.33;;
71366;SDS011;60030;52.274;8.040;2022-12-07T13:36:25;7.07;;;1.30;;
71366;SDS011;60030;52.274;8.040;2022-12-07T13:38:55;4.13;;;1.17;;
71366;SDS011;60030;52.274;8.040;2022-12-07T13:41:25;4.60;;;1.20;;
71366;SDS011;60030;52.274;8.040;2022-12-07T13:43:54;8.67;;;1.70;;
71366;SDS011;60030;52.274;8.040;2022-12-07T13:46:30;4.70;;;1.33;;
71366;SDS011;60030;52.274;8.040;2022-12-07T13:49:03;5.73;;;1.47;;
71366;SDS011;60030;52.274;8.040;2022-12-07T13:51:46;4.27;;;1.20;;
71366;SDS011;60030;52.274;8.040;2022-12-07T13:54:14;5.97;;;1.30;;
71366;SDS011;60030;52.274;8.040;2022-12-07T13:56:43;2.90;;;1.20;;
71366;SDS011;60030;52.274;8.040;2022-12-07T13:59:13;6.00;;;1.40;;
71366;SDS011;60030;52.274;8.040;2022-12-07T14:01:42;5.63;;;1.47;;
71366;SDS011;60030;52.274;8.040;2022-12-07T14:04:16;6.30;;;1.37;;
71366;SDS011;60030;52.274;8.040;2022-12-07T14:06:49;7.37;;;1.63;;
71366;SDS011;60030;52.274;8.040;2022-12-07T14:09:17;5.20;;;1.50;;
71366;SDS011;60030;52.274;8.040;2022-12-07T14:11:47;4.23;;;1.30;;
71366;SDS011;60030;52.274;8.040;2022-12-07T14:14:17;3.27;;;1.03;;
71366;SDS011;60030;52.274;8.040;2022-12-07T14:16:54;6.10;;;1.20;;
71366;SDS011;60030;52.274;8.040;2022-12-07T14:22:18;5.27;;;1.33;;
71366;SDS011;60030;52.274;8.040;2022-12-07T14:24:47;5.77;;;1.40;;
71366;SDS011;60030;52.274;8.040;2022-12-07T14:27:18;4.17;;;1.40;;
71366;SDS011;60030;52.274;8.040;2022-12-07T14:29:46;5.93;;;1.50;;
71366;SDS011;60030;52.274;8.040;2022-12-07T14:32:20;6.77;;;1.47;;
71366;SDS011;60030;52.274;8.040;2022-12-07T14:34:57;6.77;;;1.40;;
71366;SDS011;60030;52.274;8.040;2022-12-07T14:37:25;3.53;;;1.23;;
71366;SDS011;60030;52.274;8.040;2022-12-07T14:39:53;3.97;;;1.10;;
71366;SDS011;60030;52.274;8.040;2022-12-07T14:42:23;4.30;;;1.20;;
71366;SDS011;60030;52.274;8.040;2022-12-07T14:44:53;5.00;;;1.13;;
71366;SDS011;60030;52.274;8.040;2022-12-07T14:47:20;7.10;;;1.50;;
71366;SDS011;60030;52.274;8.040;2022-12-07T14:49:47;1.80;;;0.70;;
71366;SDS011;60030;52.274;8.040;2022-12-07T14:52:15;2.97;;;0.60;;
71366;SDS011;60030;52.274;8.040;2022-12-07T14:54:45;2.23;;;0.60;;
71366;SDS011;60030;52.274;8.040;2022-12-07T14:57:12;2.27;;;0.60;;
71366;SDS011;60030;52.274;8.040;2022-12-07T14:59:41;1.00;;;0.60;;
71366;SDS011;60030;52.274;8.040;2022-12-07T15:02:09;1.43;;;0.50;;
71366;SDS011;60030;52.274;8.040;2022-12-07T15:04:38;2.00;;;0.57;;
71366;SDS011;60030;52.274;8.040;2022-12-07T15:07:06;2.73;;;0.60;;
71366;SDS011;60030;52.274;8.040;2022-12-07T15:09:40;1.60;;;0.77;;
71366;SDS011;60030;52.274;8.040;2022-12-07T15:12:07;2.73;;;1.10;;
71366;SDS011;60030;52.274;8.040;2022-12-07T15:14:34;7.90;;;1.20;;
71366;SDS011;60030;52.274;8.040;2022-12-07T15:17:02;2.53;;;0.80;;
71366;SDS011;60030;52.274;8.040;2022-12-07T15:19:29;2.70;;;0.83;;
71366;SDS011;60030;52.274;8.040;2022-12-07T15:21:56;1.87;;;1.00;;
71366;SDS011;60030;52.274;8.040;2022-12-07T15:24:25;5.80;;;0.90;;
71366;SDS011;60030;52.274;8.040;2022-12-07T15:26:52;3.73;;;0.90;;
71366;SDS011;60030;52.274;8.040;2022-12-07T15:29:20;3.87;;;0.90;;
71366;SDS011;60030;52.274;8.040;2022-12-07T15:31:48;2.70;;;0.93;;
71366;SDS011;60030;52.274;8.040;2022-12-07T15:34:17;2.73;;;1.47;;
71366;SDS011;60030;52.274;8.040;2022-12-07T15:36:44;3.93;;;1.50;;